Time;durP1;ratioP1;P1;durP2;ratioP2;P2;SDS_P1;SDS_P2;PMS_P1;PMS_P2;Temp;Humidity;BMP_temperature;BMP_pressure;BME280_temperature;BME280_humidity;BME280_pressure;Samples;Min_cycle;Max_cycle;Signal;HPM_P1;HPM_P2
2023/04/17 00:00:20;;;;;;;43.92;21.83;;;9.10;99.90;;;;;;4966561;28;20035;-64
2023/04/17 00:02:46;;;;;;;41.15;21.13;;;9.10;99.90;;;;;;4967592;28;20042;-64
2023/04/17 00:05:12;;;;;;;36.83;19.55;;;9.10;99.90;;;;;;4969800;28;20080;-64
2023/04/17 00:07:38;;;;;;;40.78;21.17;;;9.10;99.90;;;;;;4969047;28;20033;-64
2023/04/17 00:10:09;;;;;;;47.47;23.38;;;9.10;99.90;;;;;;4983630;28;20500;-64
2023/04/17 00:12:35;;;;;;;41.72;22.10;;;9.10;99.90;;;;;;4963246;28;20031;-64
2023/04/17 00:15:01;;;;;;;49.38;23.90;;;9.10;99.90;;;;;;4972311;28;20051;-64
2023/04/17 00:17:26;;;;;;;43.67;24.30;;;9.20;99.90;;;;;;4962554;28;20066;-64
2023/04/17 00:19:52;;;;;;;43.55;22.05;;;9.20;99.90;;;;;;4974079;28;20079;-65
2023/04/17 00:22:17;;;;;;;45.67;24.42;;;9.10;99.90;;;;;;4972526;28;20019;-64
2023/04/17 00:24:43;;;;;;;46.80;23.23;;;9.10;99.90;;;;;;4950357;28;20549;-63
2023/04/17 00:27:09;;;;;;;45.33;23.33;;;9.10;99.90;;;;;;4964378;28;20026;-64
2023/04/17 00:29:36;;;;;;;47.22;23.13;;;9.10;99.90;;;;;;4965434;28;20027;-64
2023/04/17 00:32:02;;;;;;;44.72;20.73;;;9.10;99.90;;;;;;4962173;28;20476;-64
2023/04/17 00:34:27;;;;;;;48.83;25.27;;;9.10;99.90;;;;;;4963944;28;20085;-64
2023/04/17 00:36:53;;;;;;;53.83;26.58;;;9.20;99.90;;;;;;4961326;28;20438;-64
2023/04/17 00:39:19;;;;;;;48.33;25.27;;;9.20;99.90;;;;;;4961780;28;20031;-63
2023/04/17 00:41:45;;;;;;;54.70;25.38;;;9.20;99.90;;;;;;4963340;28;20085;-64
2023/04/17 00:44:10;;;;;;;50.90;26.52;;;9.20;99.90;;;;;;4960478;28;20454;-64
2023/04/17 00:46:36;;;;;;;56.83;25.23;;;9.20;99.90;;;;;;4974113;28;20043;-64
2023/04/17 00:49:02;;;;;;;53.38;25.20;;;9.20;99.90;;;;;;4966780;28;20027;-63
2023/04/17 00:51:27;;;;;;;54.15;25.98;;;9.20;99.90;;;;;;4964207;28;20031;-64
2023/04/17 00:53:54;;;;;;;56.72;26.95;;;9.20;99.90;;;;;;4974483;28;20034;-65
2023/04/17 00:56:20;;;;;;;62.30;28.38;;;9.20;99.90;;;;;;4962169;28;20023;-64
2023/04/17 00:58:46;;;;;;;55.03;27.30;;;9.20;99.90;;;;;;4968565;28;20062;-65
2023/04/17 01:01:12;;;;;;;52.03;26.90;;;9.20;99.90;;;;;;4967701;28;20643;-65
2023/04/17 01:03:38;;;;;;;55.80;27.58;;;9.20;99.90;;;;;;4963430;28;20031;-65
2023/04/17 01:06:03;;;;;;;54.53;26.38;;;9.20;99.90;;;;;;4972069;28;20052;-64
2023/04/17 01:08:41;;;;;;;53.38;27.08;;;9.20;99.90;;;;;;4967155;28;20030;-64
2023/04/17 01:11:08;;;;;;;63.08;29.10;;;9.20;99.90;;;;;;4965433;28;20027;-64
2023/04/17 01:13:33;;;;;;;57.65;29.50;;;9.20;99.90;;;;;;4969418;22;20087;-65
2023/04/17 01:15:59;;;;;;;65.28;30.63;;;9.20;99.90;;;;;;4946149;29;20106;-65
2023/04/17 01:18:24;;;;;;;66.80;32.28;;;9.20;99.90;;;;;;4955357;28;20459;-65
2023/04/17 01:20:50;;;;;;;66.45;31.85;;;9.20;99.90;;;;;;4943265;29;20042;-66
2023/04/17 01:23:16;;;;;;;64.65;33.70;;;9.20;99.90;;;;;;4944094;28;20599;-66
2023/04/17 01:25:41;;;;;;;75.72;32.15;;;9.20;99.90;;;;;;4942924;28;20084;-65
2023/04/17 01:28:07;;;;;;;70.60;32.35;;;9.10;99.90;;;;;;4945761;29;20401;-64
2023/04/17 01:30:34;;;;;;;73.25;31.88;;;9.10;99.90;;;;;;4944058;28;20039;-65
2023/04/17 01:32:59;;;;;;;73.30;34.05;;;9.10;99.90;;;;;;4944028;28;20023;-66
2023/04/17 01:35:25;;;;;;;74.97;35.28;;;9.10;99.90;;;;;;4941824;28;20031;-66
2023/04/17 01:37:51;;;;;;;71.93;35.45;;;9.20;99.90;;;;;;4943395;28;20039;-67
2023/04/17 01:40:16;;;;;;;75.35;34.78;;;9.20;99.90;;;;;;4947139;28;20050;-66
2023/04/17 01:42:42;;;;;;;77.13;35.13;;;9.10;99.90;;;;;;4946138;28;20119;-67
2023/04/17 01:45:08;;;;;;;69.32;31.85;;;9.20;99.90;;;;;;4948532;29;20031;-66
2023/04/17 01:47:34;;;;;;;69.60;30.23;;;9.10;99.90;;;;;;4948026;28;20493;-66
2023/04/17 01:49:59;;;;;;;70.07;31.80;;;9.10;99.90;;;;;;4949371;28;20042;-66
2023/04/17 01:52:25;;;;;;;59.33;28.60;;;9.00;99.90;;;;;;4951261;28;20020;-66
2023/04/17 01:54:51;;;;;;;63.67;30.88;;;9.00;99.90;;;;;;4960516;28;20023;-66
2023/04/17 01:57:16;;;;;;;60.65;30.70;;;9.00;99.90;;;;;;4970306;28;20084;-66
2023/04/17 01:59:42;;;;;;;65.03;30.42;;;8.90;99.90;;;;;;4949383;28;20039;-66
2023/04/17 02:02:07;;;;;;;70.50;31.52;;;9.00;99.90;;;;;;4944812;29;20032;-67
2023/04/17 02:04:33;;;;;;;78.55;34.88;;;9.00;99.90;;;;;;4953766;28;20074;-66
2023/04/17 02:06:58;;;;;;;69.00;33.40;;;9.00;99.90;;;;;;4949095;29;20447;-65
2023/04/17 02:09:24;;;;;;;64.47;31.60;;;9.00;99.90;;;;;;4942453;29;20062;-67
2023/04/17 02:11:49;;;;;;;70.32;33.05;;;9.10;99.90;;;;;;4949707;28;20107;-66
2023/04/17 02:14:17;;;;;;;70.60;33.60;;;9.10;99.90;;;;;;4946884;28;20086;-67
2023/04/17 02:16:44;;;;;;;68.72;34.55;;;9.10;99.90;;;;;;4944797;28;20023;-67
2023/04/17 02:19:10;;;;;;;81.63;33.60;;;9.10;99.90;;;;;;4943996;28;20106;-67
2023/04/17 02:21:36;;;;;;;66.72;31.88;;;9.10;99.90;;;;;;4942775;28;20031;-66
2023/04/17 02:24:01;;;;;;;63.35;30.65;;;9.00;99.90;;;;;;4952059;28;20093;-67
2023/04/17 02:26:27;;;;;;;62.25;28.52;;;9.00;99.90;;;;;;4940740;28;20046;-65
2023/04/17 02:28:52;;;;;;;61.50;30.25;;;9.00;99.90;;;;;;4942933;29;20108;-67
2023/04/17 02:31:18;;;;;;;57.13;29.52;;;9.00;99.90;;;;;;4944356;28;20412;-66
2023/04/17 02:33:44;;;;;;;58.38;29.38;;;8.90;99.90;;;;;;4943364;28;20042;-67
2023/04/17 02:36:09;;;;;;;63.70;32.00;;;8.90;99.90;;;;;;4939446;28;20024;-67
2023/04/17 02:38:36;;;;;;;62.72;31.27;;;8.90;99.90;;;;;;4940556;28;20046;-66
2023/04/17 02:41:03;;;;;;;76.57;35.15;;;8.90;99.90;;;;;;4945415;28;20034;-67
2023/04/17 02:43:28;;;;;;;68.80;32.45;;;8.90;99.90;;;;;;4943115;28;20043;-67
2023/04/17 02:45:54;;;;;;;62.22;30.45;;;9.00;99.90;;;;;;4947473;29;20093;-67
2023/04/17 02:48:19;;;;;;;68.30;32.95;;;8.90;99.90;;;;;;4948441;29;20031;-66
2023/04/17 02:50:45;;;;;;;65.80;32.08;;;9.00;99.90;;;;;;4946166;28;20078;-66
2023/04/17 02:53:11;;;;;;;69.45;33.85;;;9.00;99.90;;;;;;4947137;28;20106;-66
2023/04/17 02:55:36;;;;;;;67.53;32.53;;;9.10;99.90;;;;;;4950633;28;20114;-66
2023/04/17 02:58:02;;;;;;;72.80;35.22;;;9.10;99.90;;;;;;4943399;28;20098;-68
2023/04/17 03:00:28;;;;;;;71.10;34.95;;;9.20;99.90;;;;;;4945713;29;20511;-66
2023/04/17 03:02:54;;;;;;;69.90;34.70;;;9.20;99.90;;;;;;4933815;28;20051;-67
2023/04/17 03:05:22;;;;;;;73.28;35.70;;;9.20;99.90;;;;;;4947009;28;20027;-67
2023/04/17 03:07:49;;;;;;;66.72;35.08;;;9.20;99.90;;;;;;4945410;29;20042;-67
2023/04/17 03:10:14;;;;;;;69.75;34.47;;;9.20;99.90;;;;;;4943076;28;20039;-66
2023/04/17 03:12:40;;;;;;;71.47;32.78;;;9.20;99.90;;;;;;4944654;28;20030;-67
2023/04/17 03:15:06;;;;;;;70.05;33.55;;;9.20;99.90;;;;;;4948639;28;20442;-66
2023/04/17 03:17:32;;;;;;;69.63;34.22;;;9.30;99.90;;;;;;4947336;29;20571;-66
2023/04/17 03:19:58;;;;;;;67.10;33.50;;;9.20;99.90;;;;;;4946121;28;20122;-66
2023/04/17 03:22:23;;;;;;;63.80;32.00;;;9.20;99.90;;;;;;4950207;29;20516;-67
2023/04/17 03:24:49;;;;;;;68.07;34.17;;;9.20;99.90;;;;;;4951618;29;20035;-67
2023/04/17 03:27:14;;;;;;;69.35;34.17;;;9.20;99.90;;;;;;4950670;28;20027;-67
2023/04/17 03:29:40;;;;;;;58.55;31.58;;;9.30;99.90;;;;;;4951560;29;20031;-65
2023/04/17 03:32:05;;;;;;;67.45;31.02;;;9.20;99.90;;;;;;4951634;29;20396;-67
2023/04/17 03:34:31;;;;;;;60.45;30.75;;;9.20;99.90;;;;;;4951013;29;20023;-66
2023/04/17 03:36:57;;;;;;;68.95;32.00;;;9.20;99.90;;;;;;4951703;29;20035;-67
2023/04/17 03:39:23;;;;;;;67.28;32.47;;;9.20;99.90;;;;;;4951945;28;20054;-66
2023/04/17 03:41:48;;;;;;;60.75;30.38;;;9.30;99.90;;;;;;4950156;29;20059;-67
2023/04/17 03:44:16;;;;;;;63.80;32.25;;;9.30;99.90;;;;;;4947210;28;20027;-67
2023/04/17 03:46:41;;;;;;;53.30;28.60;;;9.20;99.90;;;;;;4947969;29;20042;-65
2023/04/17 03:49:07;;;;;;;60.92;30.73;;;9.20;99.90;;;;;;4948223;28;20031;-67
2023/04/17 03:51:32;;;;;;;50.08;28.48;;;9.20;99.90;;;;;;4944599;28;20058;-67
2023/04/17 03:53:58;;;;;;;55.10;30.92;;;9.20;99.90;;;;;;4943807;28;20034;-67
2023/04/17 03:56:24;;;;;;;63.92;28.92;;;9.20;99.90;;;;;;4936455;28;20015;-65
2023/04/17 03:58:50;;;;;;;60.20;28.67;;;9.20;99.90;;;;;;4944828;29;20023;-67
2023/04/17 04:01:15;;;;;;;58.17;30.15;;;9.20;99.90;;;;;;4944304;29;20032;-67
2023/04/17 04:03:41;;;;;;;56.65;29.25;;;9.10;99.90;;;;;;4934905;28;20050;-65
2023/04/17 04:06:07;;;;;;;58.30;30.17;;;9.10;99.90;;;;;;4944222;28;20045;-67
2023/04/17 04:08:32;;;;;;;52.95;28.88;;;9.10;99.90;;;;;;4943406;28;20142;-66
2023/04/17 04:10:59;;;;;;;60.47;29.77;;;9.00;99.90;;;;;;4941736;28;20043;-65
2023/04/17 04:13:25;;;;;;;57.35;30.95;;;9.10;99.90;;;;;;4946750;29;20027;-66
2023/04/17 04:15:51;;;;;;;51.67;28.27;;;9.10;99.90;;;;;;4945765;28;20028;-67
2023/04/17 04:18:16;;;;;;;54.28;30.63;;;9.10;99.90;;;;;;4940352;29;20027;-66
2023/04/17 04:20:42;;;;;;;54.08;27.63;;;9.10;99.90;;;;;;4945981;28;20037;-65
2023/04/17 04:23:08;;;;;;;54.92;29.13;;;9.00;99.90;;;;;;4944498;28;20485;-66
2023/04/17 04:25:35;;;;;;;48.63;28.48;;;9.00;99.90;;;;;;4942137;28;20093;-65
2023/04/17 04:28:01;;;;;;;52.33;26.75;;;9.00;99.90;;;;;;4943723;28;20096;-66
2023/04/17 04:30:29;;;;;;;52.58;27.05;;;9.00;99.90;;;;;;4945667;28;20035;-67
2023/04/17 04:32:55;;;;;;;50.78;25.50;;;9.10;99.90;;;;;;4947242;29;20027;-66
2023/04/17 04:35:24;;;;;;;45.60;25.52;;;9.00;99.90;;;;;;4949571;29;20449;-68
2023/04/17 04:37:53;;;;;;;43.05;24.27;;;9.10;99.90;;;;;;4948865;28;20026;-66
2023/04/17 04:40:20;;;;;;;45.58;25.25;;;9.00;99.90;;;;;;4944360;28;20102;-67
2023/04/17 04:42:48;;;;;;;45.60;24.35;;;9.00;99.90;;;;;;4944824;28;20055;-67
2023/04/17 04:45:14;;;;;;;47.15;24.92;;;9.00;99.90;;;;;;4947490;28;20788;-65
2023/04/17 04:47:40;;;;;;;42.97;23.48;;;9.00;99.90;;;;;;4945328;28;20447;-67
2023/04/17 04:50:06;;;;;;;40.50;23.20;;;9.00;99.90;;;;;;4940622;29;20043;-67
2023/04/17 04:52:32;;;;;;;45.35;25.23;;;8.90;99.90;;;;;;4943892;28;20102;-67
2023/04/17 04:54:58;;;;;;;38.97;23.65;;;8.90;99.90;;;;;;4946575;29;20445;-67
2023/04/17 04:57:23;;;;;;;41.25;24.67;;;8.90;99.90;;;;;;4943445;28;20101;-67
2023/04/17 04:59:49;;;;;;;39.35;23.25;;;8.90;99.90;;;;;;4946211;28;20038;-66
2023/04/17 05:02:15;;;;;;;45.33;23.70;;;8.90;99.90;;;;;;4929511;28;20088;-66
2023/04/17 05:04:40;;;;;;;41.80;23.42;;;8.90;99.90;;;;;;4946877;28;20114;-65
2023/04/17 05:07:06;;;;;;;41.38;22.83;;;8.90;99.90;;;;;;4942909;28;20050;-66
2023/04/17 05:09:32;;;;;;;41.22;23.13;;;8.90;99.90;;;;;;4943104;29;20552;-67
2023/04/17 05:11:58;;;;;;;45.88;25.27;;;8.90;99.90;;;;;;4944555;28;20098;-66
2023/04/17 05:14:23;;;;;;;50.40;25.95;;;8.90;99.90;;;;;;4943455;28;20123;-66
2023/04/17 05:16:49;;;;;;;44.05;23.88;;;8.90;99.90;;;;;;4941999;28;20024;-65
2023/04/17 05:19:15;;;;;;;41.40;23.52;;;8.90;99.90;;;;;;4943972;28;20023;-66
2023/04/17 05:21:41;;;;;;;47.38;26.02;;;8.90;99.90;;;;;;4945317;28;20318;-66
2023/04/17 05:24:07;;;;;;;38.17;23.60;;;8.90;99.90;;;;;;4949209;29;20477;-67
2023/04/17 05:26:32;;;;;;;42.05;25.30;;;8.90;99.90;;;;;;4945648;28;20059;-66
2023/04/17 05:28:58;;;;;;;38.55;23.70;;;8.90;99.90;;;;;;4947296;29;20039;-65
2023/04/17 05:31:23;;;;;;;37.70;21.95;;;9.00;99.90;;;;;;4947151;29;20023;-63
2023/04/17 05:33:49;;;;;;;40.05;21.35;;;9.10;99.90;;;;;;4945760;29;20081;-67
2023/04/17 05:36:15;;;;;;;36.47;22.55;;;9.20;99.90;;;;;;4947751;29;20392;-66
2023/04/17 05:38:40;;;;;;;38.50;21.63;;;9.30;99.90;;;;;;4948926;28;20050;-65
2023/04/17 05:41:07;;;;;;;36.58;20.27;;;9.40;99.90;;;;;;4945664;29;20051;-66
2023/04/17 05:43:33;;;;;;;36.65;21.55;;;9.50;99.90;;;;;;4946250;28;20039;-66
2023/04/17 05:45:58;;;;;;;32.88;18.45;;;9.60;99.90;;;;;;4942048;28;20028;-66
2023/04/17 05:48:24;;;;;;;30.05;19.00;;;9.70;99.90;;;;;;4941947;28;20031;-64
2023/04/17 05:50:49;;;;;;;32.40;19.52;;;9.70;99.90;;;;;;4945411;28;20110;-68
2023/04/17 05:53:16;;;;;;;33.50;19.80;;;9.70;99.90;;;;;;4944337;28;20023;-65
2023/04/17 05:55:41;;;;;;;31.13;18.52;;;9.70;99.90;;;;;;4943678;28;20100;-66
2023/04/17 05:58:07;;;;;;;35.97;20.60;;;9.60;99.90;;;;;;4944009;28;20443;-65
2023/04/17 06:00:33;;;;;;;32.03;18.65;;;9.60;99.90;;;;;;4947709;29;20035;-66
2023/04/17 06:03:00;;;;;;;38.03;19.00;;;9.50;99.90;;;;;;4930432;28;20046;-67
2023/04/17 06:05:26;;;;;;;29.58;17.60;;;9.50;99.90;;;;;;4942992;28;22344;-66
2023/04/17 06:07:52;;;;;;;29.02;18.00;;;9.40;99.90;;;;;;4938537;28;20775;-67
2023/04/17 06:10:18;;;;;;;32.35;18.63;;;9.50;99.90;;;;;;4942890;28;20039;-66
2023/04/17 06:12:44;;;;;;;30.90;18.65;;;9.50;99.90;;;;;;4944502;28;20019;-67
2023/04/17 06:15:10;;;;;;;31.98;18.80;;;9.50;99.90;;;;;;4949085;28;20023;-66
2023/04/17 06:17:37;;;;;;;34.15;19.17;;;9.40;99.90;;;;;;4940607;28;20035;-67
2023/04/17 06:20:06;;;;;;;31.73;19.17;;;9.40;99.90;;;;;;4945482;28;20035;-66
2023/04/17 06:22:32;;;;;;;32.40;18.20;;;9.40;99.90;;;;;;4943059;28;20043;-65
2023/04/17 06:24:57;;;;;;;29.08;16.60;;;9.40;99.90;;;;;;4943158;28;20028;-67
2023/04/17 06:27:23;;;;;;;32.80;18.10;;;9.40;99.90;;;;;;4940914;28;20130;-66
2023/04/17 06:29:49;;;;;;;30.92;16.40;;;9.40;99.90;;;;;;4943035;28;20028;-64
2023/04/17 06:32:15;;;;;;;29.48;16.55;;;9.50;99.90;;;;;;4942669;28;20634;-68
2023/04/17 06:34:41;;;;;;;29.15;16.15;;;9.60;99.90;;;;;;4942006;28;20026;-65
2023/04/17 06:37:06;;;;;;;27.85;16.45;;;9.70;99.90;;;;;;4941330;29;20028;-65
2023/04/17 06:39:33;;;;;;;28.80;16.17;;;9.60;99.90;;;;;;4942238;28;20093;-67
2023/04/17 06:41:58;;;;;;;25.30;15.57;;;9.80;99.90;;;;;;4942625;28;20118;-67
2023/04/17 06:44:24;;;;;;;25.52;15.00;;;9.80;99.90;;;;;;4940872;29;20598;-67
2023/04/17 06:46:52;;;;;;;24.15;15.30;;;9.90;99.90;;;;;;4946240;28;20578;-66
2023/04/17 06:49:18;;;;;;;21.35;13.75;;;10.10;99.90;;;;;;4947568;28;20640;-66
2023/04/17 06:51:46;;;;;;;23.13;14.90;;;10.20;99.90;;;;;;4949149;28;20031;-67
2023/04/17 06:54:12;;;;;;;22.23;14.00;;;10.20;99.90;;;;;;4947395;29;20023;-67
2023/04/17 06:56:37;;;;;;;26.80;14.48;;;10.30;99.90;;;;;;4944772;28;20019;-66
2023/04/17 06:59:03;;;;;;;25.75;14.30;;;10.30;99.90;;;;;;4947268;29;20035;-68
2023/04/17 07:01:30;;;;;;;23.95;14.35;;;10.40;99.90;;;;;;4946937;29;20107;-67
2023/04/17 07:03:56;;;;;;;23.63;14.30;;;10.50;99.90;;;;;;4971870;28;20149;-66
2023/04/17 07:06:25;;;;;;;25.73;14.68;;;10.50;99.90;;;;;;4948149;28;20038;-67
2023/04/17 07:08:51;;;;;;;24.60;14.48;;;10.60;99.90;;;;;;4945646;28;20779;-66
2023/04/17 07:11:16;;;;;;;23.20;14.02;;;10.60;99.90;;;;;;4946439;29;20071;-66
2023/04/17 07:13:42;;;;;;;24.75;15.82;;;10.60;99.90;;;;;;4975921;22;20147;-66
2023/04/17 07:16:07;;;;;;;26.85;15.10;;;10.70;99.90;;;;;;4924096;28;20032;-66
2023/04/17 07:18:33;;;;;;;22.77;14.85;;;10.70;99.90;;;;;;4933681;28;20051;-66
2023/04/17 07:20:59;;;;;;;19.90;13.20;;;10.80;99.90;;;;;;4945635;28;20028;-65
2023/04/17 07:23:24;;;;;;;30.80;14.90;;;10.90;99.90;;;;;;4938491;28;20055;-66
2023/04/17 07:25:50;;;;;;;24.05;15.45;;;11.00;99.90;;;;;;4929088;29;20085;-67
2023/04/17 07:28:17;;;;;;;23.52;15.40;;;11.00;99.90;;;;;;4924686;29;20473;-66
2023/04/17 07:30:42;;;;;;;25.92;15.13;;;11.00;99.90;;;;;;4928642;28;20063;-66
2023/04/17 07:33:08;;;;;;;24.13;14.93;;;11.10;99.90;;;;;;4932601;29;20051;-65
2023/04/17 07:35:34;;;;;;;21.13;14.00;;;11.10;99.90;;;;;;4933535;29;20030;-65
2023/04/17 07:38:02;;;;;;;23.42;14.27;;;11.20;99.90;;;;;;4929081;29;20119;-66
2023/04/17 07:40:28;;;;;;;23.77;14.73;;;11.10;99.90;;;;;;4931512;29;20028;-65
2023/04/17 07:42:55;;;;;;;27.38;16.52;;;11.10;99.90;;;;;;4927729;29;20078;-66
2023/04/17 07:45:21;;;;;;;27.35;15.98;;;11.10;99.90;;;;;;4929224;29;20027;-66
2023/04/17 07:47:47;;;;;;;26.48;15.43;;;11.00;99.90;;;;;;4931805;29;20035;-66
2023/04/17 07:50:12;;;;;;;28.42;16.23;;;11.20;99.90;;;;;;4930678;29;20434;-66
2023/04/17 07:52:38;;;;;;;22.98;14.88;;;11.30;99.90;;;;;;4931620;29;20073;-65
2023/04/17 07:55:04;;;;;;;21.80;14.00;;;11.40;99.90;;;;;;4930149;29;20445;-66
2023/04/17 07:57:31;;;;;;;21.67;14.13;;;11.50;99.90;;;;;;4929790;29;20036;-65
2023/04/17 07:59:57;;;;;;;23.15;13.65;;;11.60;99.90;;;;;;4929070;29;20019;-65
2023/04/17 08:02:23;;;;;;;25.05;14.68;;;11.80;99.90;;;;;;4926153;29;20115;-66
2023/04/17 08:04:50;;;;;;;24.58;14.45;;;11.80;99.90;;;;;;4924624;28;20052;-66
2023/04/17 08:07:17;;;;;;;23.23;14.82;;;11.90;99.90;;;;;;4931506;29;20405;-66
2023/04/17 08:09:43;;;;;;;22.38;13.45;;;11.90;99.90;;;;;;4929701;29;20121;-66
2023/04/17 08:12:08;;;;;;;23.02;14.70;;;12.10;99.90;;;;;;4931437;28;20074;-67
2023/04/17 08:14:34;;;;;;;21.45;13.15;;;12.20;99.90;;;;;;4931968;29;20507;-65
2023/04/17 08:17:00;;;;;;;22.05;12.57;;;12.40;99.90;;;;;;4930867;29;20027;-66
2023/04/17 08:19:26;;;;;;;23.67;13.43;;;12.40;99.90;;;;;;4931926;29;20023;-66
2023/04/17 08:22:01;;;;;;;22.98;13.50;;;12.40;99.90;;;;;;4930886;29;20524;-65
2023/04/17 08:24:27;;;;;;;20.65;12.43;;;12.20;99.90;;;;;;4921358;29;20113;-66
2023/04/17 08:26:52;;;;;;;22.42;13.02;;;12.10;99.90;;;;;;4929268;29;20497;-66
2023/04/17 08:29:18;;;;;;;19.95;11.93;;;12.10;99.90;;;;;;4931244;28;20101;-66
2023/04/17 08:31:43;;;;;;;21.67;11.77;;;12.10;99.90;;;;;;4931599;29;20030;-66
2023/04/17 08:34:09;;;;;;;21.95;12.27;;;12.20;99.90;;;;;;4929626;29;20019;-66
2023/04/17 08:36:35;;;;;;;19.77;11.77;;;12.20;99.90;;;;;;4930844;29;20058;-65
2023/04/17 08:39:00;;;;;;;19.92;12.25;;;12.20;99.90;;;;;;4928940;29;20525;-66
2023/04/17 08:41:36;;;;;;;19.05;11.40;;;12.00;99.90;;;;;;4927671;29;20455;-66
2023/04/17 08:44:02;;;;;;;17.40;11.07;;;12.10;99.90;;;;;;4927657;28;20401;-65
2023/04/17 08:46:29;;;;;;;17.80;11.00;;;12.40;99.90;;;;;;4930885;29;20032;-65
2023/04/17 08:48:55;;;;;;;18.50;10.93;;;12.60;99.90;;;;;;4930873;29;20047;-66
2023/04/17 08:51:25;;;;;;;17.45;10.48;;;12.60;99.90;;;;;;4921485;29;20482;-65
2023/04/17 08:53:50;;;;;;;17.23;10.18;;;12.70;99.90;;;;;;4926702;29;20155;-66
2023/04/17 08:56:16;;;;;;;18.25;10.20;;;13.00;99.90;;;;;;4926804;28;20110;-65
2023/04/17 08:58:41;;;;;;;17.05;9.20;;;13.20;99.90;;;;;;4925464;28;20027;-66
2023/04/17 09:01:14;;;;;;;14.20;9.73;;;13.40;99.90;;;;;;4930539;29;20081;-66
2023/04/17 09:03:45;;;;;;;16.40;9.80;;;14.00;99.90;;;;;;4912662;28;20024;-66
2023/04/17 09:06:13;;;;;;;17.75;10.32;;;14.60;99.90;;;;;;4926029;28;20030;-66
2023/04/17 09:08:53;;;;;;;14.48;9.65;;;14.70;99.90;;;;;;4924019;29;20044;-65
2023/04/17 09:11:19;;;;;;;13.70;9.45;;;14.50;99.90;;;;;;4926121;29;20027;-67
2023/04/17 09:13:44;;;;;;;21.83;9.07;;;14.30;99.90;;;;;;4929775;28;20398;-65
2023/04/17 09:16:12;;;;;;;16.15;8.60;;;14.30;99.90;;;;;;4926549;29;21034;-66
2023/04/17 09:18:39;;;;;;;14.95;8.45;;;15.50;99.90;;;;;;4927368;29;20032;-67
2023/04/17 09:21:06;;;;;;;13.20;7.80;;;16.60;99.50;;;;;;4927580;29;20129;-66
2023/04/17 09:23:48;;;;;;;10.50;7.00;;;17.30;98.60;;;;;;4928794;29;20036;-66
2023/04/17 09:26:15;;;;;;;12.57;7.38;;;18.40;96.40;;;;;;4929126;29;20042;-65
2023/04/17 09:29:03;;;;;;;16.65;9.30;;;18.70;92.50;;;;;;4923071;29;20038;-65
2023/04/17 09:31:30;;;;;;;10.93;7.30;;;18.00;92.60;;;;;;4927618;29;20509;-66
2023/04/17 09:33:57;;;;;;;11.00;7.55;;;17.80;93.70;;;;;;4926128;29;20032;-67
2023/04/17 09:36:23;;;;;;;13.88;6.82;;;18.00;92.50;;;;;;4929855;29;20012;-66
2023/04/17 09:38:50;;;;;;;15.75;6.45;;;18.40;93.20;;;;;;4927949;28;20452;-67
2023/04/17 09:41:24;;;;;;;10.02;7.07;;;18.90;92.20;;;;;;4921337;29;20030;-66
2023/04/17 09:43:52;;;;;;;13.38;7.32;;;19.00;91.20;;;;;;4912057;28;20032;-67
2023/04/17 09:46:47;;;;;;;11.15;7.35;;;19.20;90.10;;;;;;4914667;29;20031;-66
2023/04/17 09:49:33;;;;;;;11.30;7.20;;;18.80;91.60;;;;;;4921005;29;20366;-65
2023/04/17 09:51:59;;;;;;;11.60;7.38;;;17.90;92.30;;;;;;4923750;28;20035;-67
2023/04/17 09:54:25;;;;;;;14.90;7.40;;;17.50;93.10;;;;;;4923893;28;20051;-67
2023/04/17 09:56:54;;;;;;;13.43;7.68;;;17.20;93.30;;;;;;4925786;29;20066;-67
2023/04/17 09:59:23;;;;;;;11.88;8.95;;;16.40;94.90;;;;;;4928807;29;20031;-65
2023/04/17 10:01:49;;;;;;;12.88;8.75;;;16.20;96.40;;;;;;4924560;29;20058;-66
2023/04/17 10:04:15;;;;;;;15.10;6.82;;;15.70;94.70;;;;;;4916816;28;20564;-66
2023/04/17 10:06:41;;;;;;;13.55;6.93;;;15.60;95.70;;;;;;4926652;28;20069;-66
2023/04/17 10:09:07;;;;;;;9.68;6.53;;;15.40;95.10;;;;;;4923257;29;20555;-67
2023/04/17 10:11:39;;;;;;;10.52;6.75;;;15.50;94.70;;;;;;4925853;29;20060;-66
2023/04/17 10:14:29;;;;;;;10.55;5.82;;;15.30;93.40;;;;;;4932147;28;20056;-66
2023/04/17 10:16:55;;;;;;;12.63;6.25;;;14.90;94.00;;;;;;4921093;28;20028;-66
2023/04/17 10:19:32;;;;;;;11.70;5.72;;;14.50;95.20;;;;;;4927215;29;20043;-67
2023/04/17 10:22:19;;;;;;;13.38;5.93;;;14.90;94.70;;;;;;4922805;29;20031;-67
2023/04/17 10:25:08;;;;;;;9.43;5.75;;;15.20;94.30;;;;;;4928404;29;20038;-67
2023/04/17 10:27:44;;;;;;;12.30;6.32;;;15.70;92.40;;;;;;4921203;28;20052;-66
2023/04/17 10:30:14;;;;;;;14.35;5.28;;;16.10;92.60;;;;;;4923940;28;20555;-65
2023/04/17 10:33:05;;;;;;;14.80;6.75;;;16.20;93.50;;;;;;4919542;28;20032;-66
2023/04/17 10:35:35;;;;;;;17.23;6.35;;;16.20;91.50;;;;;;4922061;28;20029;-66
2023/04/17 10:38:02;;;;;;;15.75;6.30;;;16.40;90.90;;;;;;4920986;28;20520;-66
2023/04/17 10:40:36;;;;;;;8.60;6.20;;;16.40;90.80;;;;;;4940433;28;20126;-66
2023/04/17 10:43:08;;;;;;;10.63;6.43;;;16.10;91.30;;;;;;4926986;29;20571;-66
2023/04/17 10:45:58;;;;;;;11.23;7.10;;;16.10;92.30;;;;;;4925698;28;20029;-66
2023/04/17 10:48:46;;;;;;;10.95;6.55;;;16.00;91.00;;;;;;4928276;29;20107;-66
2023/04/17 10:51:25;;;;;;;14.60;6.85;;;15.90;92.60;;;;;;4921296;28;20047;-66
2023/04/17 10:53:55;;;;;;;9.55;6.15;;;15.90;91.80;;;;;;4928673;29;20030;-67
2023/04/17 10:56:36;;;;;;;11.65;7.50;;;15.50;91.30;;;;;;4927404;28;20028;-66
2023/04/17 10:59:05;;;;;;;9.98;6.45;;;15.20;92.60;;;;;;4930904;28;20019;-68
2023/04/17 11:01:37;;;;;;;10.38;7.20;;;15.10;92.90;;;;;;4949288;28;20030;-66
2023/04/17 11:04:03;;;;;;;11.52;7.57;;;15.40;92.80;;;;;;4943551;28;20036;-67
2023/04/17 11:06:39;;;;;;;10.77;6.57;;;15.60;92.60;;;;;;4913416;28;20526;-66
2023/04/17 11:09:09;;;;;;;14.60;7.88;;;15.60;92.70;;;;;;4926436;28;20035;-65
2023/04/17 11:11:40;;;;;;;11.32;7.43;;;15.70;92.20;;;;;;4930004;28;20393;-66
2023/04/17 11:14:11;;;;;;;10.85;6.20;;;15.70;92.20;;;;;;4922756;28;20031;-66
2023/04/17 11:16:38;;;;;;;12.18;6.60;;;15.40;92.70;;;;;;4928763;28;20031;-66
2023/04/17 11:19:05;;;;;;;12.35;7.18;;;15.50;92.60;;;;;;4927348;28;20093;-65
2023/04/17 11:21:31;;;;;;;12.13;7.15;;;15.40;92.50;;;;;;4923191;28;20028;-66
2023/04/17 11:24:01;;;;;;;11.15;6.60;;;15.10;92.00;;;;;;4918603;29;20080;-66
2023/04/17 11:26:26;;;;;;;14.18;5.43;;;15.10;92.60;;;;;;4928428;28;20111;-66
2023/04/17 11:28:52;;;;;;;12.45;6.35;;;15.20;91.80;;;;;;4925313;28;20115;-66
2023/04/17 11:31:17;;;;;;;8.10;5.75;;;15.40;92.00;;;;;;4928661;28;20039;-66
2023/04/17 11:33:43;;;;;;;9.95;4.85;;;15.40;91.40;;;;;;4925393;28;20571;-66
2023/04/17 11:36:09;;;;;;;9.07;5.20;;;15.40;90.90;;;;;;4929835;28;20039;-65
2023/04/17 11:38:35;;;;;;;8.98;5.30;;;15.30;92.60;;;;;;4951524;28;20022;-66
2023/04/17 11:41:01;;;;;;;13.40;6.00;;;15.50;91.90;;;;;;4949474;28;20101;-66
2023/04/17 11:43:29;;;;;;;9.77;5.07;;;15.50;91.00;;;;;;4934870;28;20037;-65
2023/04/17 11:45:57;;;;;;;7.93;5.03;;;15.50;90.90;;;;;;4931009;28;20047;-67
2023/04/17 11:48:24;;;;;;;10.50;5.05;;;15.60;91.10;;;;;;4944971;28;20078;-67
2023/04/17 11:50:58;;;;;;;9.02;5.30;;;15.60;91.40;;;;;;4924496;28;20036;-66
2023/04/17 11:53:24;;;;;;;7.20;5.00;;;15.90;91.00;;;;;;4930255;28;20477;-66
2023/04/17 11:56:16;;;;;;;9.95;5.65;;;15.90;90.20;;;;;;4928187;28;20039;-66
2023/04/17 11:58:52;;;;;;;8.63;4.65;;;16.10;90.50;;;;;;4933869;28;20028;-66
2023/04/17 12:01:20;;;;;;;7.07;4.32;;;16.10;90.20;;;;;;4924235;28;20390;-67
2023/04/17 12:03:46;;;;;;;5.97;4.40;;;16.40;91.10;;;;;;4930243;29;20042;-67
2023/04/17 12:06:12;;;;;;;6.80;4.57;;;16.80;90.20;;;;;;4911401;28;20052;-67
2023/04/17 12:08:43;;;;;;;7.35;3.78;;;17.00;89.70;;;;;;4923416;28;20112;-66
2023/04/17 12:11:26;;;;;;;8.15;4.57;;;17.20;86.70;;;;;;4925357;28;20107;-66
2023/04/17 12:13:53;;;;;;;11.98;5.38;;;17.00;85.30;;;;;;4923536;29;20426;-67
2023/04/17 12:16:19;;;;;;;8.52;4.13;;;17.20;85.60;;;;;;4918996;29;20036;-66
2023/04/17 12:18:45;;;;;;;7.60;4.50;;;17.20;87.70;;;;;;4921365;29;20107;-67
2023/04/17 12:21:11;;;;;;;7.85;4.30;;;17.10;86.40;;;;;;4925172;29;20039;-67
2023/04/17 12:23:37;;;;;;;6.18;3.50;;;17.00;85.90;;;;;;4922426;29;20039;-66
2023/04/17 12:26:02;;;;;;;6.72;3.95;;;17.00;86.40;;;;;;4921710;28;20038;-66
2023/04/17 12:28:28;;;;;;;20.65;3.85;;;17.00;86.20;;;;;;4925238;29;20062;-67
2023/04/17 12:30:54;;;;;;;5.95;2.90;;;16.90;84.50;;;;;;4926050;28;20028;-66
2023/04/17 12:33:20;;;;;;;6.63;3.35;;;16.80;83.10;;;;;;4920589;28;20024;-65
2023/04/17 12:35:45;;;;;;;5.05;3.28;;;16.70;83.20;;;;;;4915720;28;20517;-66